Time;durP1;ratioP1;P1;durP2;ratioP2;P2;SDS_P1;SDS_P2;PMS_P1;PMS_P2;Temp;Humidity;BMP_temperature;BMP_pressure;BME280_temperature;BME280_humidity;BME280_pressure;Samples;Min_cycle;Max_cycle;Signal;HPM_P1;HPM_P2
2023/08/27 00:01:17;;;;;;;0.85;0.85;;;;;;;21.71;72.33;96827.13;5043129;28;20123;-63
2023/08/27 00:03:44;;;;;;;0.80;0.80;;;;;;;21.79;72.08;96834.16;5041897;28;20048;-63
2023/08/27 00:06:11;;;;;;;0.85;0.85;;;;;;;21.67;72.62;96820.03;5043036;28;20052;-62
2023/08/27 00:08:38;;;;;;;0.85;0.85;;;;;;;21.59;72.95;96825.06;5041453;28;20049;-62
2023/08/27 00:11:05;;;;;;;0.90;0.90;;;;;;;21.56;72.47;96825.94;5043226;28;20049;-61
2023/08/27 00:13:32;;;;;;;0.90;0.90;;;;;;;21.54;73.15;96814.34;5043236;28;20425;-60
2023/08/27 00:15:59;;;;;;;0.90;0.90;;;;;;;21.60;73.55;96821.03;5042792;28;20040;-61
2023/08/27 00:18:26;;;;;;;0.90;0.90;;;;;;;21.50;74.31;96815.69;5041039;28;20683;-60
2023/08/27 00:20:53;;;;;;;0.95;0.95;;;;;;;21.42;74.53;96815.09;5041796;28;20128;-61
2023/08/27 00:23:20;;;;;;;0.90;0.90;;;;;;;21.42;74.61;96814.31;5042198;28;20048;-60
2023/08/27 00:25:46;;;;;;;0.80;0.80;;;;;;;21.31;74.47;96797.72;5042771;28;20052;-60
2023/08/27 00:28:14;;;;;;;0.80;0.80;;;;;;;19.54;73.83;96518.81;5041682;28;20095;-63
2023/08/27 00:30:41;;;;;;;0.90;0.90;;;;;;;21.41;74.23;96819.16;5042671;28;20091;-61
2023/08/27 00:33:09;;;;;;;0.90;0.90;;;;;;;21.42;73.66;96817.91;5041243;28;20052;-63
2023/08/27 00:35:36;;;;;;;1.00;1.00;;;;;;;21.51;73.03;96823.72;5043175;28;20049;-62
2023/08/27 00:38:06;;;;;;;0.90;0.90;;;;;;;21.12;73.45;96804.28;5043256;28;20060;-61
2023/08/27 00:40:34;;;;;;;0.82;0.82;;;;;;;21.48;73.09;96807.66;5042690;28;20139;-61
2023/08/27 00:43:02;;;;;;;0.80;0.80;;;;;;;21.60;72.34;96815.38;5032268;28;20420;-61
2023/08/27 00:45:29;;;;;;;0.90;0.90;;;;;;;21.68;71.58;96801.84;5042831;28;20048;-61
2023/08/27 00:47:56;;;;;;;0.80;0.80;;;;;;;21.71;71.49;96809.41;5041217;28;20048;-60
2023/08/27 00:50:25;;;;;;;0.90;0.90;;;;;;;21.43;71.44;96770.81;5041034;28;20048;-61
2023/08/27 00:52:53;;;;;;;0.93;0.93;;;;;;;21.76;71.05;96795.59;5041067;28;20049;-61
2023/08/27 00:55:21;;;;;;;1.00;1.00;;;;;;;21.68;71.16;96805.47;5040293;28;20530;-61
2023/08/27 00:57:48;;;;;;;0.80;0.80;;;;;;;21.64;71.50;96787.84;5041462;28;20056;-63
2023/08/27 01:00:17;;;;;;;0.90;0.90;;;;;;;21.62;70.77;96767.81;5041948;28;20056;-61
2023/08/27 01:02:46;;;;;;;0.80;0.80;;;;;;;21.45;70.39;96740.91;5040701;28;20063;-62
2023/08/27 01:05:13;;;;;;;0.80;0.80;;;;;;;21.56;70.80;96786.50;5042209;28;20130;-63
2023/08/27 01:08:15;;;;;;;0.90;0.90;;;;;;;21.63;70.94;96779.84;5042361;28;20057;-62
2023/08/27 01:10:42;;;;;;;0.95;0.95;;;;;;;21.66;70.60;96778.94;4988281;28;20507;-62
2023/08/27 01:13:14;;;;;;;1.00;1.00;;;;;;;21.11;70.07;96725.88;5042276;28;20512;-60
2023/08/27 01:15:42;;;;;;;1.10;1.10;;;;;;;21.70;69.42;96780.44;5040651;28;20511;-60
2023/08/27 01:18:11;;;;;;;1.00;1.00;;;;;;;21.46;69.54;96787.63;5021978;28;20041;-60
2023/08/27 01:20:37;;;;;;;0.80;0.80;;;;;;;21.18;69.55;96715.19;5022224;28;20307;-61
2023/08/27 01:23:04;;;;;;;0.90;0.90;;;;;;;21.70;69.02;96774.81;5020653;28;20095;-61
2023/08/27 01:25:39;;;;;;;0.90;0.90;;;;;;;21.75;69.18;96776.25;5021859;28;20527;-63
2023/08/27 01:28:16;;;;;;;0.98;0.98;;;;;;;21.50;70.60;96742.41;5021443;28;20061;-61
2023/08/27 01:30:45;;;;;;;1.00;1.00;;;;;;;21.62;72.17;96779.06;5021569;28;20231;-62
2023/08/27 01:33:24;;;;;;;0.80;0.80;;;;;;;21.66;71.85;96768.47;5021654;28;20515;-61
2023/08/27 01:35:51;;;;;;;0.80;0.80;;;;;;;21.67;70.95;96775.69;5022029;28;20057;-63
2023/08/27 01:38:19;;;;;;;0.90;0.90;;;;;;;21.53;70.12;96761.25;5022067;28;20049;-62
2023/08/27 01:40:46;;;;;;;0.90;0.90;;;;;;;21.36;71.26;96771.81;5021884;28;20049;-61
2023/08/27 01:43:12;;;;;;;0.90;0.90;;;;;;;21.28;71.83;96764.00;5022705;28;20413;-61
2023/08/27 01:45:39;;;;;;;0.80;0.80;;;;;;;21.30;72.23;96761.53;5020443;28;20046;-62
2023/08/27 01:48:06;;;;;;;0.90;0.90;;;;;;;21.18;72.88;96759.47;5021836;28;20085;-61
2023/08/27 01:50:33;;;;;;;0.80;0.80;;;;;;;20.85;72.96;96730.59;5020315;28;20057;-61
2023/08/27 01:52:59;;;;;;;0.80;0.80;;;;;;;21.24;72.87;96764.13;5022139;28;20049;-61
2023/08/27 01:55:26;;;;;;;0.85;0.85;;;;;;;21.17;72.47;96769.94;5035076;28;20049;-62
2023/08/27 01:57:53;;;;;;;0.90;0.90;;;;;;;21.13;72.09;96763.63;5045936;28;20083;-62
2023/08/27 02:00:20;;;;;;;0.80;0.80;;;;;;;21.13;71.79;96758.00;5044376;28;20526;-62
2023/08/27 02:02:48;;;;;;;0.90;0.90;;;;;;;21.17;71.32;96769.16;5046183;28;20077;-61
2023/08/27 02:05:15;;;;;;;0.80;0.80;;;;;;;21.13;71.24;96758.00;5045479;28;20076;-61
2023/08/27 02:07:41;;;;;;;0.80;0.80;;;;;;;21.11;71.28;96754.84;5045780;28;20049;-62
2023/08/27 02:10:09;;;;;;;0.82;0.82;;;;;;;21.09;71.14;96757.31;5045671;28;20653;-61
2023/08/27 02:12:35;;;;;;;0.90;0.90;;;;;;;21.01;71.83;96750.28;5045275;28;20541;-62
2023/08/27 02:15:03;;;;;;;0.80;0.80;;;;;;;20.99;71.85;96752.78;5046182;28;20072;-63
2023/08/27 02:17:30;;;;;;;0.90;0.90;;;;;;;21.02;72.11;96756.72;5045584;28;20578;-59
2023/08/27 02:19:57;;;;;;;0.88;0.88;;;;;;;20.66;71.89;96700.59;5043731;28;20048;-62
2023/08/27 02:22:24;;;;;;;0.90;0.90;;;;;;;21.02;71.66;96757.53;5044696;28;20057;-59
2023/08/27 02:24:52;;;;;;;0.90;0.90;;;;;;;20.98;73.38;96756.81;5043370;28;20049;-60
2023/08/27 02:27:18;;;;;;;0.90;0.90;;;;;;;20.80;76.34;96762.13;5044874;28;20438;-59
2023/08/27 02:29:45;;;;;;;0.80;0.80;;;;;;;20.69;77.25;96756.00;5044981;28;20545;-60
2023/08/27 02:32:12;;;;;;;1.00;1.00;;;;;;;20.70;77.52;96761.19;5045192;28;20063;-60
2023/08/27 02:34:38;;;;;;;0.90;0.90;;;;;;;20.70;77.51;96757.56;5045126;28;20055;-61
2023/08/27 02:37:05;;;;;;;0.80;0.80;;;;;;;20.30;77.67;96694.34;5044833;28;20519;-59
2023/08/27 02:39:32;;;;;;;0.80;0.80;;;;;;;20.72;77.41;96757.94;5044987;28;20049;-60
2023/08/27 02:41:58;;;;;;;0.90;0.90;;;;;;;20.77;77.31;96757.41;5045005;28;20045;-60
2023/08/27 02:44:25;;;;;;;0.90;0.90;;;;;;;20.79;77.19;96754.91;5044583;28;20055;-61
2023/08/27 02:46:51;;;;;;;1.00;1.00;;;;;;;20.79;76.74;96749.28;5044393;28;20048;-60
2023/08/27 02:49:18;;;;;;;0.85;0.85;;;;;;;20.92;76.10;96750.13;5044972;28;20511;-60
2023/08/27 02:51:45;;;;;;;0.98;0.98;;;;;;;20.86;76.29;96743.47;5044627;28;20080;-60
2023/08/27 02:54:11;;;;;;;0.90;0.90;;;;;;;20.89;76.14;96736.94;5043108;28;20052;-59
2023/08/27 02:56:38;;;;;;;0.80;0.80;;;;;;;20.90;75.82;96739.31;5044669;28;20053;-60
2023/08/27 02:59:05;;;;;;;0.90;0.90;;;;;;;20.87;75.91;96753.47;5044700;28;20049;-62
2023/08/27 03:01:31;;;;;;;0.80;0.80;;;;;;;20.86;74.84;96751.91;5042877;28;20052;-60
2023/08/27 03:03:58;;;;;;;0.90;0.90;;;;;;;20.71;73.84;96753.50;5043870;28;20053;-60
2023/08/27 03:06:25;;;;;;;0.82;0.82;;;;;;;20.65;73.55;96744.03;5043799;28;20061;-61
2023/08/27 03:08:51;;;;;;;0.90;0.90;;;;;;;20.59;72.98;96751.44;5044424;28;20503;-60
2023/08/27 03:11:18;;;;;;;0.90;0.90;;;;;;;20.39;72.46;96714.22;5044590;28;20049;-62
2023/08/27 03:13:45;;;;;;;0.80;0.80;;;;;;;19.91;72.85;96666.41;5043114;28;20431;-60
2023/08/27 03:16:12;;;;;;;0.80;0.80;;;;;;;20.32;73.63;96736.88;5044802;28;20044;-60
2023/08/27 03:18:38;;;;;;;0.70;0.70;;;;;;;20.15;73.78;96738.13;5044774;28;20053;-61
2023/08/27 03:21:05;;;;;;;0.80;0.80;;;;;;;20.35;73.57;96758.50;5044690;28;20076;-60
2023/08/27 03:23:35;;;;;;;0.80;0.80;;;;;;;20.36;73.19;96737.59;5044760;28;20523;-60
2023/08/27 03:26:02;;;;;;;0.90;0.90;;;;;;;20.26;73.32;96739.47;5042615;28;20045;-61
2023/08/27 03:28:28;;;;;;;0.82;0.82;;;;;;;19.90;73.44;96692.97;5043741;28;20519;-60
2023/08/27 03:30:55;;;;;;;0.90;0.90;;;;;;;20.02;74.07;96729.59;5043735;28;20045;-60
2023/08/27 03:33:22;;;;;;;0.90;0.90;;;;;;;19.90;74.29;96727.47;5043634;28;20063;-61
2023/08/27 03:35:54;;;;;;;0.80;0.80;;;;;;;19.38;74.70;96668.50;5044177;28;20243;-60
2023/08/27 03:38:20;;;;;;;0.70;0.70;;;;;;;19.80;75.13;96734.16;5043602;28;20048;-61
2023/08/27 03:40:48;;;;;;;0.80;0.80;;;;;;;19.62;74.65;96693.66;5043617;28;20053;-61
2023/08/27 03:43:16;;;;;;;0.80;0.80;;;;;;;19.92;74.59;96735.47;5042911;28;20049;-61
2023/08/27 03:45:43;;;;;;;0.93;0.93;;;;;;;19.93;74.43;96734.25;5041277;28;20057;-60
2023/08/27 03:48:10;;;;;;;0.80;0.80;;;;;;;19.92;74.28;96735.47;5043276;28;20103;-60
2023/08/27 03:50:37;;;;;;;0.90;0.90;;;;;;;19.64;74.95;96714.47;5043350;28;20065;-63
2023/08/27 03:53:04;;;;;;;0.80;0.80;;;;;;;19.86;75.00;96742.84;5042774;28;20048;-61
2023/08/27 03:55:38;;;;;;;0.80;0.80;;;;;;;19.88;74.97;96740.38;5042361;28;20401;-61
2023/08/27 03:58:09;;;;;;;0.90;0.90;;;;;;;19.79;75.96;96740.22;5042327;28;20127;-60
2023/08/27 04:00:36;;;;;;;0.93;0.93;;;;;;;19.85;76.09;96746.91;5042149;28;20176;-62
2023/08/27 04:03:04;;;;;;;0.90;0.90;;;;;;;19.92;75.97;96735.47;5041663;28;20084;-60
2023/08/27 04:05:31;;;;;;;0.80;0.80;;;;;;;20.05;75.00;96739.16;5039998;28;20065;-61
2023/08/27 04:07:58;;;;;;;0.80;0.80;;;;;;;20.15;74.54;96738.13;5041411;28;20566;-61
2023/08/27 04:10:25;;;;;;;0.80;0.80;;;;;;;20.19;73.83;96744.44;5040120;28;20048;-61
2023/08/27 04:12:52;;;;;;;0.90;0.90;;;;;;;20.04;73.24;96729.16;5041619;28;20056;-60
2023/08/27 04:15:19;;;;;;;0.70;0.70;;;;;;;19.91;73.43;96719.81;5041130;28;20515;-61
2023/08/27 04:17:46;;;;;;;0.75;0.75;;;;;;;19.98;72.34;96694.38;5042686;28;20060;-60
2023/08/27 04:20:12;;;;;;;0.70;0.70;;;;;;;20.31;72.00;96746.56;5042466;28;20060;-60
2023/08/27 04:22:39;;;;;;;0.80;0.80;;;;;;;20.35;71.82;96753.69;5042364;28;20045;-61
2023/08/27 04:25:06;;;;;;;0.85;0.85;;;;;;;20.39;71.03;96736.72;5043280;28;20048;-60
2023/08/27 04:27:33;;;;;;;0.80;0.80;;;;;;;20.47;71.07;96749.38;5037779;28;20045;-60
2023/08/27 04:30:00;;;;;;;0.80;0.80;;;;;;;20.62;70.31;96745.72;5021561;28;20064;-61
2023/08/27 04:32:27;;;;;;;0.80;0.80;;;;;;;20.72;70.17;96750.25;5022726;28;20523;-60
2023/08/27 04:34:54;;;;;;;0.73;0.73;;;;;;;20.72;70.50;96749.47;5023022;28;20053;-62
2023/08/27 04:37:21;;;;;;;0.90;0.90;;;;;;;20.23;69.50;96675.63;5022996;28;20111;-61
2023/08/27 04:39:47;;;;;;;0.85;0.85;;;;;;;20.78;69.33;96758.97;5023179;28;20265;-62
2023/08/27 04:42:14;;;;;;;0.80;0.80;;;;;;;20.99;68.90;96758.41;5022341;28;20053;-61
2023/08/27 04:44:41;;;;;;;0.90;0.90;;;;;;;21.09;69.11;96757.31;5022585;28;20061;-61
2023/08/27 04:47:07;;;;;;;0.80;0.80;;;;;;;21.25;68.95;96760.06;5021105;28;20057;-61
2023/08/27 04:49:34;;;;;;;0.80;0.80;;;;;;;20.85;68.60;96685.53;5022339;28;20068;-63
2023/08/27 04:52:01;;;;;;;0.80;0.80;;;;;;;21.49;68.53;96763.38;5022477;28;20057;-60
2023/08/27 04:54:27;;;;;;;0.88;0.88;;;;;;;21.48;67.02;96737.19;5022621;28;20054;-63
2023/08/27 04:56:54;;;;;;;0.80;0.80;;;;;;;21.24;66.60;96673.97;5039738;28;20045;-60
2023/08/27 04:59:21;;;;;;;0.80;0.80;;;;;;;21.62;65.90;96745.25;5041108;28;20056;-61
2023/08/27 05:01:47;;;;;;;0.90;0.90;;;;;;;21.65;66.10;96752.81;5038779;28;20555;-63
2023/08/27 05:04:14;;;;;;;0.90;0.90;;;;;;;21.79;66.87;96755.19;5040391;28;20052;-60
2023/08/27 05:06:41;;;;;;;0.90;0.90;;;;;;;21.73;67.45;96734.41;5039367;28;20052;-62
2023/08/27 05:09:07;;;;;;;0.90;0.90;;;;;;;21.70;67.24;96712.78;5041154;28;20048;-62
2023/08/27 05:11:34;;;;;;;0.80;0.80;;;;;;;22.08;66.36;96753.03;5040726;28;20427;-61
2023/08/27 05:14:01;;;;;;;0.90;0.90;;;;;;;21.50;65.13;96658.63;5038905;28;20060;-61
2023/08/27 05:16:29;;;;;;;1.00;1.00;;;;;;;22.14;64.85;96753.25;5040456;28;20505;-61
2023/08/27 05:18:55;;;;;;;1.10;1.10;;;;;;;22.29;64.29;96729.75;5040750;28;20056;-62
2023/08/27 05:21:22;;;;;;;1.00;1.00;;;;;;;22.54;64.36;96743.03;5040403;28;20059;-61
2023/08/27 05:23:50;;;;;;;0.90;0.90;;;;;;;22.78;63.65;96747.03;5040522;28;20053;-62
2023/08/27 05:26:17;;;;;;;1.00;1.00;;;;;;;23.01;62.61;96742.97;5038712;28;20088;-60
2023/08/27 05:28:44;;;;;;;0.90;0.90;;;;;;;22.96;60.73;96713.28;5039927;28;20084;-61
2023/08/27 05:31:10;;;;;;;0.95;0.95;;;;;;;23.13;60.50;96778.84;5038912;28;20060;-60
2023/08/27 05:33:37;;;;;;;1.00;1.00;;;;;;;23.18;60.46;96713.28;5040863;28;20138;-60
2023/08/27 05:36:04;;;;;;;1.00;1.00;;;;;;;23.25;60.35;96756.22;5038864;28;20049;-59
2023/08/27 05:38:31;;;;;;;1.08;1.08;;;;;;;23.22;61.66;96757.09;5040239;28;20057;-60
2023/08/27 05:40:58;;;;;;;1.00;1.00;;;;;;;23.03;61.45;96681.94;5040403;28;20055;-60
2023/08/27 05:43:26;;;;;;;0.90;0.90;;;;;;;23.78;60.06;96765.50;5040879;28;20143;-58
2023/08/27 05:45:53;;;;;;;1.00;1.00;;;;;;;23.48;60.65;96754.97;5039879;28;20527;-60
2023/08/27 05:48:19;;;;;;;1.10;1.10;;;;;;;22.99;62.88;96754.75;5040597;28;20379;-59
2023/08/27 05:50:46;;;;;;;0.88;0.88;;;;;;;22.33;65.41;96710.69;5040558;28;20056;-60
2023/08/27 05:53:15;;;;;;;0.90;0.90;;;;;;;22.70;64.92;96711.81;5039954;28;20557;-59
2023/08/27 05:55:44;;;;;;;0.93;0.93;;;;;;;23.08;62.92;96698.28;5039941;28;20540;-60
2023/08/27 05:58:10;;;;;;;1.00;1.00;;;;;;;23.74;62.79;96750.72;5041813;28;20087;-58
2023/08/27 06:00:37;;;;;;;1.00;1.00;;;;;;;24.02;61.35;96749.59;5041582;28;20083;-59
2023/08/27 06:03:04;;;;;;;1.00;1.00;;;;;;;24.11;61.39;96746.78;5041634;28;20048;-59
2023/08/27 06:05:30;;;;;;;1.00;1.00;;;;;;;24.17;59.94;96747.00;5041889;28;20297;-59
2023/08/27 06:07:58;;;;;;;1.00;1.00;;;;;;;24.25;60.61;96746.22;5040382;28;20053;-58
2023/08/27 06:10:25;;;;;;;1.10;1.10;;;;;;;24.32;60.24;96754.41;5041235;28;20056;-59
2023/08/27 06:12:52;;;;;;;1.00;1.00;;;;;;;24.36;59.83;96757.13;5040252;28;20107;-59
2023/08/27 06:15:18;;;;;;;1.00;1.00;;;;;;;24.60;59.13;96766.59;5040932;28;20056;-59
2023/08/27 06:17:45;;;;;;;1.13;1.13;;;;;;;24.56;59.37;96766.75;5039609;28;20170;-60
2023/08/27 06:20:12;;;;;;;0.95;0.95;;;;;;;24.44;59.75;96716.69;5039565;28;20049;-61
2023/08/27 06:22:38;;;;;;;1.02;1.02;;;;;;;24.33;60.37;96764.47;5041033;28;20057;-59
2023/08/27 06:25:06;;;;;;;1.10;1.10;;;;;;;24.74;59.80;96755.47;5040995;28;20055;-59
2023/08/27 06:27:32;;;;;;;1.08;1.08;;;;;;;24.99;58.40;96738.16;5041105;28;20064;-59
2023/08/27 06:29:59;;;;;;;1.20;1.20;;;;;;;24.74;59.30;96732.81;5041306;28;20047;-59
2023/08/27 06:32:27;;;;;;;1.20;1.20;;;;;;;24.63;59.08;96709.78;5040895;28;20079;-62
2023/08/27 06:34:54;;;;;;;1.17;1.17;;;;;;;25.20;57.90;96754.22;5040664;28;20409;-59
2023/08/27 06:37:21;;;;;;;1.05;1.05;;;;;;;25.55;56.21;96756.72;5039779;28;20064;-58
2023/08/27 06:39:49;;;;;;;1.30;1.30;;;;;;;25.76;55.91;96758.56;5040266;28;20045;-59
2023/08/27 06:42:16;;;;;;;1.40;1.40;;;;;;;25.88;55.65;96751.88;5042420;28;20090;-58
2023/08/27 06:44:42;;;;;;;1.20;1.20;;;;;;;26.06;55.05;96749.00;5042299;28;20049;-60
2023/08/27 06:47:09;;;;;;;1.30;1.30;;;;;;;26.21;54.68;96758.41;5043479;28;20093;-59
2023/08/27 06:49:35;;;;;;;1.20;1.20;;;;;;;26.09;54.85;96742.38;5043825;28;20049;-59
2023/08/27 06:52:03;;;;;;;1.20;1.20;;;;;;;26.01;55.05;96753.31;5043546;28;20049;-60
2023/08/27 06:54:30;;;;;;;1.20;1.20;;;;;;;25.78;54.13;96668.81;5043183;28;20052;-60
2023/08/27 06:56:57;;;;;;;1.20;1.20;;;;;;;26.38;54.12;96751.06;5042689;28;20068;-58
2023/08/27 06:59:24;;;;;;;1.30;1.30;;;;;;;26.70;53.14;96753.88;5043325;28;20396;-58
2023/08/27 07:01:50;;;;;;;1.48;1.48;;;;;;;26.70;53.10;96750.25;5041707;28;20128;-59
2023/08/27 07:04:17;;;;;;;1.20;1.20;;;;;;;26.18;53.75;96750.84;5042496;28;20056;-61
2023/08/27 07:06:44;;;;;;;1.33;1.33;;;;;;;26.64;52.40;96746.50;5042751;28;20103;-58
2023/08/27 07:09:10;;;;;;;1.38;1.38;;;;;;;26.98;52.35;96740.28;5042852;28;20056;-59
2023/08/27 07:11:38;;;;;;;1.42;1.42;;;;;;;26.84;52.38;96745.91;5042788;28;20056;-58
2023/08/27 07:14:05;;;;;;;1.40;1.40;;;;;;;26.81;51.46;96701.41;5043217;28;20060;-58
2023/08/27 07:16:32;;;;;;;1.45;1.45;;;;;;;26.55;52.21;96743.72;5042566;28;20467;-59
2023/08/27 07:18:59;;;;;;;1.60;1.60;;;;;;;26.70;52.18;96744.56;5041321;28;20048;-59
2023/08/27 07:21:26;;;;;;;1.65;1.65;;;;;;;27.06;51.21;96740.69;5043109;28;20190;-58
2023/08/27 07:23:53;;;;;;;1.40;1.40;;;;;;;27.29;51.22;96746.34;5043315;28;20051;-59
2023/08/27 07:26:19;;;;;;;1.55;1.55;;;;;;;27.15;50.56;96741.38;5043382;28;20060;-58
2023/08/27 07:28:46;;;;;;;1.50;1.50;;;;;;;27.33;50.08;96715.63;5041942;28;20048;-58
2023/08/27 07:31:13;;;;;;;1.55;1.55;;;;;;;27.67;49.64;96725.56;5041980;28;20045;-58
2023/08/27 07:33:40;;;;;;;1.60;1.60;;;;;;;27.70;49.90;96731.06;5042546;28;20048;-61
2023/08/27 07:36:06;;;;;;;1.60;1.60;;;;;;;28.09;48.81;96715.44;5043720;28;20055;-61
2023/08/27 07:38:41;;;;;;;1.75;1.75;;;;;;;28.10;48.42;96688.53;5043420;28;20053;-58
2023/08/27 07:41:09;;;;;;;1.50;1.50;;;;;;;28.44;48.17;96720.38;5042477;28;20061;-59
2023/08/27 07:43:36;;;;;;;1.80;1.80;;;;;;;28.55;48.29;96718.47;5043596;28;20077;-59
2023/08/27 07:46:03;;;;;;;1.60;1.60;;;;;;;28.78;46.98;96716.69;5042104;28;20432;-60
2023/08/27 07:48:31;;;;;;;1.52;1.52;;;;;;;28.70;45.91;96704.16;5043857;28;20056;-62
2023/08/27 07:50:58;;;;;;;1.60;1.60;;;;;;;28.39;47.17;96713.28;5043804;28;20063;-59
2023/08/27 07:53:25;;;;;;;1.50;1.50;;;;;;;28.32;47.00;96712.91;5042982;28;20053;-60
2023/08/27 07:55:52;;;;;;;1.80;1.80;;;;;;;28.54;46.43;96713.25;5042711;28;20088;-59
2023/08/27 07:58:21;;;;;;;1.63;1.63;;;;;;;28.42;46.43;96717.22;5042176;28;20613;-60
2023/08/27 08:00:48;;;;;;;1.70;1.70;;;;;;;28.45;45.31;96653.53;4861265;28;5001275;-57
2023/08/27 08:03:15;;;;;;;1.77;1.77;;;;;;;29.09;45.01;96703.38;5042509;28;20045;-59
2023/08/27 08:05:42;;;;;;;1.60;1.60;;;;;;;29.24;44.14;96691.88;5040399;28;20128;-60
2023/08/27 08:08:08;;;;;;;1.70;1.70;;;;;;;28.99;44.46;96669.78;5040868;28;20074;-59
2023/08/27 08:10:35;;;;;;;1.90;1.90;;;;;;;29.33;43.71;96660.31;5042304;28;20053;-60
2023/08/27 08:13:05;;;;;;;1.70;1.70;;;;;;;29.56;43.34;96687.75;5042381;28;20057;-60
2023/08/27 08:15:33;;;;;;;1.88;1.88;;;;;;;29.82;42.67;96691.41;5042278;28;20506;-59
2023/08/27 08:17:59;;;;;;;1.92;1.92;;;;;;;29.65;43.31;96689.69;5042282;28;20080;-60
2023/08/27 08:20:26;;;;;;;1.92;1.92;;;;;;;29.92;42.60;96687.09;5042239;28;20072;-60
2023/08/27 08:22:53;;;;;;;1.98;1.98;;;;;;;29.94;43.14;96678.78;5042050;28;20060;-60
2023/08/27 08:25:22;;;;;;;1.75;1.75;;;;;;;30.13;42.38;96679.97;5041992;28;20467;-58
2023/08/27 08:27:49;;;;;;;1.80;1.80;;;;;;;30.01;42.60;96675.47;5039968;28;20439;-60
2023/08/27 08:30:16;;;;;;;1.73;1.73;;;;;;;29.19;42.44;96547.06;5041356;28;20417;-61
2023/08/27 08:32:43;;;;;;;1.90;1.90;;;;;;;30.47;41.36;96678.94;5041483;28;20056;-60
2023/08/27 08:35:09;;;;;;;2.00;2.00;;;;;;;30.66;40.95;96667.84;5039557;28;20550;-59
2023/08/27 08:37:36;;;;;;;1.80;1.80;;;;;;;30.98;40.51;96664.34;5041419;28;20067;-59
2023/08/27 08:40:03;;;;;;;1.95;1.95;;;;;;;31.06;40.78;96666.72;5039808;28;20699;-60
2023/08/27 08:42:36;;;;;;;1.75;1.75;;;;;;;31.23;41.05;96658.94;5041393;28;20900;-60
2023/08/27 08:45:15;;;;;;;2.15;2.15;;;;;;;31.43;39.76;96661.63;5039964;28;20049;-59
2023/08/27 08:47:43;;;;;;;1.60;1.60;;;;;;;31.50;38.19;96655.38;5041526;28;20076;-60
2023/08/27 08:50:13;;;;;;;1.90;1.90;;;;;;;31.61;39.24;96658.25;5041289;28;20075;-60
2023/08/27 08:52:43;;;;;;;1.98;1.98;;;;;;;31.85;39.58;96644.25;5041767;28;20056;-61
2023/08/27 08:55:10;;;;;;;1.80;1.80;;;;;;;31.43;38.46;96645.22;5038607;28;20050;-61
2023/08/27 08:57:45;;;;;;;1.67;1.67;;;;;;;31.52;38.55;96650.69;5041738;28;20504;-60
2023/08/27 09:00:12;;;;;;;2.17;2.17;;;;;;;31.71;38.18;96642.41;5039410;28;20045;-58
2023/08/27 09:02:40;;;;;;;1.80;1.80;;;;;;;31.90;37.93;96632.75;5041400;28;20053;-60
2023/08/27 09:05:12;;;;;;;1.90;1.90;;;;;;;31.84;37.81;96623.38;5040347;28;20205;-56
2023/08/27 09:07:40;;;;;;;2.00;2.00;;;;;;;31.30;37.38;96624.91;5041807;28;20071;-61
2023/08/27 09:10:09;;;;;;;1.80;1.80;;;;;;;31.39;37.40;96626.75;5041991;28;20049;-61
2023/08/27 09:12:39;;;;;;;1.90;1.90;;;;;;;31.86;35.68;96620.00;5041475;28;20045;-60
2023/08/27 09:15:10;;;;;;;1.98;1.98;;;;;;;31.84;35.28;96616.88;5041443;28;20044;-60
2023/08/27 09:17:38;;;;;;;1.80;1.80;;;;;;;31.39;36.84;96627.53;5042306;28;20045;-60
2023/08/27 09:20:07;;;;;;;2.00;2.00;;;;;;;31.06;36.27;96557.97;5042106;28;20049;-59
2023/08/27 09:22:35;;;;;;;2.00;2.00;;;;;;;31.51;35.17;96571.81;5041443;28;20060;-59
2023/08/27 09:25:05;;;;;;;1.98;1.98;;;;;;;31.99;35.19;96605.94;5041743;28;20041;-59
2023/08/27 09:27:32;;;;;;;1.70;1.70;;;;;;;32.23;35.19;96611.88;5040882;28;20057;-61
2023/08/27 09:30:00;;;;;;;2.10;2.10;;;;;;;31.53;35.49;96614.25;5042697;28;20542;-61
2023/08/27 09:32:28;;;;;;;2.25;2.25;;;;;;;32.04;35.64;96608.00;5041925;28;20053;-60
2023/08/27 09:34:59;;;;;;;2.00;2.00;;;;;;;32.01;35.67;96620.53;5041321;28;20044;-59
2023/08/27 09:37:27;;;;;;;1.55;1.55;;;;;;;31.64;36.48;96605.66;5040926;28;20080;-60
2023/08/27 09:39:55;;;;;;;1.65;1.65;;;;;;;32.03;35.44;96607.22;5039093;28;20048;-59
2023/08/27 09:42:22;;;;;;;2.00;2.00;;;;;;;32.08;34.47;96574.09;5039099;28;20156;-59
2023/08/27 09:44:52;;;;;;;2.00;2.00;;;;;;;32.47;34.45;96608.44;5040550;28;20053;-59
2023/08/27 09:47:30;;;;;;;1.65;1.65;;;;;;;32.80;33.60;96606.19;5038874;28;20057;-59
2023/08/27 09:49:58;;;;;;;2.08;2.08;;;;;;;33.06;33.69;96603.75;5040500;28;20508;-60
2023/08/27 09:52:26;;;;;;;1.60;1.60;;;;;;;33.01;32.49;96555.75;5038899;28;20064;-60
2023/08/27 09:54:53;;;;;;;1.63;1.63;;;;;;;33.24;32.90;96587.97;5037944;28;20064;-59
2023/08/27 09:57:20;;;;;;;1.85;1.85;;;;;;;33.16;32.81;96584.91;5040065;28;20045;-62
2023/08/27 09:59:47;;;;;;;1.75;1.75;;;;;;;32.95;32.66;96583.72;5040026;28;20049;-60
2023/08/27 10:02:17;;;;;;;2.30;2.30;;;;;;;32.80;32.28;96543.06;5040593;28;20060;-61
2023/08/27 10:04:53;;;;;;;1.88;1.88;;;;;;;32.63;32.00;96588.28;5039851;28;20474;-60
2023/08/27 10:07:20;;;;;;;1.92;1.92;;;;;;;32.82;31.91;96574.88;5040038;28;20152;-59
2023/08/27 10:09:51;;;;;;;2.17;2.17;;;;;;;33.16;32.31;96573.41;5040048;28;20059;-61
2023/08/27 10:12:19;;;;;;;1.92;1.92;;;;;;;32.97;31.87;96578.25;5038294;28;20557;-60
2023/08/27 10:14:46;;;;;;;1.88;1.88;;;;;;;33.24;31.26;96542.81;5039724;28;20088;-61
2023/08/27 10:17:14;;;;;;;1.73;1.73;;;;;;;33.15;31.33;96568.22;5042152;28;20057;-60
2023/08/27 10:19:41;;;;;;;1.90;1.90;;;;;;;33.10;32.15;96560.41;5042184;28;20485;-61
2023/08/27 10:22:08;;;;;;;1.85;1.85;;;;;;;33.68;31.49;96571.22;5043219;28;20535;-60
2023/08/27 10:24:34;;;;;;;1.65;1.65;;;;;;;34.06;30.69;96571.38;5042186;28;20045;-60
2023/08/27 10:27:03;;;;;;;1.63;1.63;;;;;;;34.35;30.69;96570.56;5043684;28;20068;-61
2023/08/27 10:29:30;;;;;;;2.10;2.10;;;;;;;34.48;30.66;96556.28;5041755;28;20563;-60
2023/08/27 10:31:57;;;;;;;2.05;2.05;;;;;;;34.62;30.16;96561.59;5043039;28;20045;-60
2023/08/27 10:34:28;;;;;;;2.10;2.10;;;;;;;34.49;29.98;96523.31;5042755;28;20057;-59
2023/08/27 10:37:09;;;;;;;2.20;2.20;;;;;;;34.63;30.09;96540.16;5043168;28;20063;-59
2023/08/27 10:39:37;;;;;;;2.03;2.03;;;;;;;34.83;30.02;96564.72;5043409;28;20051;-58
2023/08/27 10:42:05;;;;;;;1.77;1.77;;;;;;;34.12;30.28;96549.88;5043616;28;20567;-59
2023/08/27 10:44:32;;;;;;;2.50;2.40;;;;;;;33.43;31.93;96514.22;5043574;28;20526;-59
2023/08/27 10:47:09;;;;;;;1.88;1.88;;;;;;;33.68;31.41;96548.22;5043414;28;20521;-59
2023/08/27 10:49:37;;;;;;;1.92;1.92;;;;;;;33.34;31.69;96546.91;5043557;28;20053;-60
2023/08/27 10:52:16;;;;;;;2.00;2.00;;;;;;;33.42;31.77;96524.94;5043766;28;20176;-58
2023/08/27 10:54:45;;;;;;;1.95;1.95;;;;;;;33.75;31.33;96521.75;5041517;28;20057;-59
2023/08/27 10:57:23;;;;;;;1.85;1.85;;;;;;;34.18;31.21;96544.06;5043371;28;20056;-58
2023/08/27 10:59:54;;;;;;;2.17;2.17;;;;;;;34.40;31.24;96555.34;5042351;28;20048;-59
2023/08/27 11:02:20;;;;;;;2.05;2.05;;;;;;;34.48;30.48;96527.50;5043034;28;20048;-59
2023/08/27 11:04:50;;;;;;;1.80;1.80;;;;;;;34.69;30.78;96540.06;5042211;28;20049;-60
2023/08/27 11:07:19;;;;;;;1.83;1.83;;;;;;;34.63;30.76;96504.81;5044357;28;20052;-59
2023/08/27 11:09:52;;;;;;;1.90;1.90;;;;;;;34.82;30.27;96531.50;5042981;28;20558;-60
2023/08/27 11:12:34;;;;;;;2.00;2.00;;;;;;;34.09;30.79;96527.16;5044033;28;20057;-58
2023/08/27 11:15:15;;;;;;;1.73;1.73;;;;;;;34.44;31.08;96521.28;5044301;28;20065;-60
2023/08/27 11:17:42;;;;;;;2.20;2.20;;;;;;;34.50;30.77;96513.34;5043537;28;20146;-60
2023/08/27 11:20:24;;;;;;;1.85;1.85;;;;;;;34.41;30.94;96517.41;5043234;28;20100;-59
2023/08/27 11:23:00;;;;;;;2.22;2.22;;;;;;;34.64;29.57;96489.88;5038477;28;20164;-63
2023/08/27 11:25:29;;;;;;;2.22;2.22;;;;;;;34.38;30.27;96495.41;5023770;28;20061;-59
2023/08/27 11:28:02;;;;;;;2.10;2.10;;;;;;;34.73;30.30;96498.13;5022903;28;20063;-60
2023/08/27 11:30:30;;;;;;;2.20;2.20;;;;;;;35.19;30.02;96508.44;5038723;28;20207;-59
2023/08/27 11:32:57;;;;;;;2.15;2.15;;;;;;;34.92;29.69;96473.00;5023742;28;20468;-59
2023/08/27 11:35:26;;;;;;;1.77;1.77;;;;;;;34.68;30.28;96489.56;5038308;28;20123;-59
2023/08/27 11:37:54;;;;;;;2.38;2.38;;;;;;;35.03;29.68;96463.44;5021236;28;20358;-59